Time;durP1;ratioP1;P1;durP2;ratioP2;P2;SDS_P1;SDS_P2;PMS_P1;PMS_P2;Temp;Humidity;BMP_temperature;BMP_pressure;BME280_temperature;BME280_humidity;BME280_pressure;Samples;Min_cycle;Max_cycle;Signal;HPM_P1;HPM_P2
2022/09/08 00:00:41;;;;;;;23.60;20.48;;;15.30;89.80;;;;;;4998875;28;20587;-88
2022/09/08 00:03:10;;;;;;;25.25;21.23;;;15.20;89.80;;;;;;4998884;28;20173;-89
2022/09/08 00:05:48;;;;;;;30.20;22.50;;;15.00;89.70;;;;;;4998859;28;20189;-89
2022/09/08 00:08:17;;;;;;;26.65;23.88;;;14.90;90.00;;;;;;4998849;28;20170;-87
2022/09/08 00:10:42;;;;;;;26.17;23.58;;;15.00;90.40;;;;;;5016205;28;20177;-89
2022/09/08 00:13:09;;;;;;;35.83;27.00;;;14.90;90.60;;;;;;4998616;28;20175;-88
2022/09/08 00:15:37;;;;;;;32.03;26.30;;;15.00;90.80;;;;;;5016041;28;20225;-88
2022/09/08 00:18:03;;;;;;;28.83;26.03;;;14.90;91.00;;;;;;4998722;28;20795;-88
2022/09/08 00:20:29;;;;;;;29.80;26.63;;;15.00;91.10;;;;;;4998675;28;20180;-88
2022/09/08 00:22:54;;;;;;;28.17;25.13;;;15.00;91.10;;;;;;5015981;28;20561;-88
2022/09/08 00:25:20;;;;;;;30.60;24.53;;;14.90;91.10;;;;;;4998283;28;20188;-88
2022/09/08 00:27:45;;;;;;;27.57;24.53;;;14.90;91.20;;;;;;4998413;28;20604;-88
2022/09/08 00:30:11;;;;;;;29.17;26.00;;;14.90;91.20;;;;;;4998328;28;20255;-88
2022/09/08 00:32:37;;;;;;;30.70;27.50;;;14.90;91.30;;;;;;4998144;28;20208;-89
2022/09/08 00:35:02;;;;;;;29.50;26.43;;;14.90;91.40;;;;;;5015749;28;20671;-88
2022/09/08 00:37:30;;;;;;;30.20;26.43;;;15.00;91.60;;;;;;4998143;28;20189;-89
2022/09/08 00:39:55;;;;;;;29.97;26.77;;;15.00;91.60;;;;;;4999232;28;20174;-88
2022/09/08 00:42:21;;;;;;;30.67;27.37;;;14.90;91.60;;;;;;4997012;28;20554;-89
2022/09/08 00:44:51;;;;;;;28.60;25.27;;;15.00;91.70;;;;;;4998279;28;20201;-89
2022/09/08 00:47:33;;;;;;;28.43;25.20;;;15.00;91.80;;;;;;4998059;28;20201;-89
2022/09/08 00:50:06;;;;;;;29.30;25.90;;;14.90;91.70;;;;;;4998154;28;20660;-89
2022/09/08 00:52:41;;;;;;;29.50;26.00;;;15.00;91.80;;;;;;4998064;28;20180;-90
2022/09/08 00:55:09;;;;;;;27.43;24.53;;;14.90;91.90;;;;;;4997758;28;20236;-88
2022/09/08 00:57:35;;;;;;;29.30;26.13;;;14.90;92.00;;;;;;4997845;28;20177;-89
2022/09/08 01:00:02;;;;;;;28.43;25.53;;;14.80;91.90;;;;;;5015354;28;20181;-87
2022/09/08 01:02:28;;;;;;;28.57;25.57;;;14.90;92.00;;;;;;4997835;28;20169;-90
2022/09/08 01:04:58;;;;;;;28.20;25.30;;;14.90;92.10;;;;;;4997759;28;20180;-89
2022/09/08 01:13:26;;;;;;;27.47;24.07;;;14.90;92.10;;;;;;5015109;28;22121;-89
2022/09/08 01:15:52;;;;;;;25.43;22.80;;;14.90;92.10;;;;;;4997422;28;20197;-89
2022/09/08 01:18:18;;;;;;;29.60;24.30;;;14.80;92.10;;;;;;4997581;28;20635;-89
2022/09/08 01:20:56;;;;;;;27.83;24.90;;;14.70;92.00;;;;;;5015007;28;20169;-90
2022/09/08 01:23:40;;;;;;;28.57;25.70;;;14.70;92.20;;;;;;4997509;28;20223;-89
2022/09/08 01:26:09;;;;;;;26.73;24.03;;;14.60;92.20;;;;;;4997353;28;20579;-89
2022/09/08 01:28:50;;;;;;;28.33;25.43;;;14.50;92.20;;;;;;5014920;28;20173;-89
2022/09/08 01:31:18;;;;;;;29.47;26.57;;;14.50;92.30;;;;;;4997267;28;20178;-90
2022/09/08 01:33:44;;;;;;;30.93;27.40;;;14.50;92.50;;;;;;4997347;28;20205;-90
2022/09/08 01:36:12;;;;;;;31.03;27.73;;;14.50;92.50;;;;;;4997053;28;20668;-89
2022/09/08 01:38:37;;;;;;;32.00;28.73;;;14.50;92.60;;;;;;4997092;28;20224;-89
2022/09/08 01:41:03;;;;;;;30.23;26.57;;;14.50;92.70;;;;;;4997821;28;20181;-89
2022/09/08 01:43:29;;;;;;;33.07;27.27;;;14.60;92.70;;;;;;4997239;28;20181;-89
2022/09/08 01:45:58;;;;;;;30.93;27.73;;;14.60;92.70;;;;;;5014476;28;20204;-89
2022/09/08 01:48:24;;;;;;;31.33;28.10;;;14.60;92.70;;;;;;4997268;28;20181;-89
2022/09/08 01:50:50;;;;;;;36.93;27.97;;;14.60;92.80;;;;;;5014787;28;20181;-90
2022/09/08 01:53:16;;;;;;;30.33;27.10;;;14.60;92.80;;;;;;4996381;28;20239;-89
2022/09/08 01:55:43;;;;;;;30.97;27.97;;;14.50;92.70;;;;;;4996556;28;20685;-88
2022/09/08 01:58:09;;;;;;;32.83;28.13;;;14.50;92.70;;;;;;4996816;28;20180;-89
2022/09/08 02:00:34;;;;;;;30.13;26.97;;;14.40;92.70;;;;;;4997192;28;20177;-89
2022/09/08 02:03:00;;;;;;;32.00;28.43;;;14.50;92.80;;;;;;5014253;28;20640;-89
2022/09/08 02:05:25;;;;;;;30.33;27.17;;;14.50;92.80;;;;;;4996571;28;20173;-90
2022/09/08 02:07:51;;;;;;;33.83;27.63;;;14.60;92.90;;;;;;4996669;28;20204;-90
2022/09/08 02:10:17;;;;;;;28.97;25.80;;;14.60;92.90;;;;;;4996617;28;20675;-89
2022/09/08 02:12:42;;;;;;;32.07;26.37;;;14.60;92.80;;;;;;4996600;28;20184;-89
2022/09/08 02:15:09;;;;;;;29.87;26.67;;;14.60;92.80;;;;;;4996477;28;20283;-89
2022/09/08 02:17:34;;;;;;;28.80;25.70;;;14.50;92.80;;;;;;4996723;28;20170;-91
2022/09/08 02:20:00;;;;;;;28.33;25.43;;;14.50;92.80;;;;;;4996421;28;20231;-89
2022/09/08 02:22:26;;;;;;;28.03;24.50;;;14.40;92.70;;;;;;4996570;28;20173;-91
2022/09/08 02:24:52;;;;;;;28.17;25.27;;;14.40;92.70;;;;;;4996471;28;20173;-90
2022/09/08 02:27:18;;;;;;;27.87;24.87;;;14.40;92.70;;;;;;4996277;28;20220;-89
2022/09/08 02:29:44;;;;;;;27.73;24.47;;;14.40;92.70;;;;;;4996515;28;20644;-89
2022/09/08 02:32:09;;;;;;;27.83;24.83;;;14.30;92.60;;;;;;4996328;28;20640;-90
2022/09/08 02:34:35;;;;;;;28.97;24.07;;;14.30;92.60;;;;;;5013616;28;20247;-89
2022/09/08 02:37:00;;;;;;;29.47;24.20;;;14.30;92.60;;;;;;4996161;28;20235;-89
2022/09/08 02:39:26;;;;;;;29.80;24.30;;;14.20;92.60;;;;;;4996279;28;20173;-89
2022/09/08 02:41:53;;;;;;;30.47;24.27;;;14.30;92.60;;;;;;4996204;28;20231;-89
2022/09/08 02:44:18;;;;;;;28.20;23.93;;;14.20;92.60;;;;;;5013648;28;20180;-89
2022/09/08 02:46:44;;;;;;;27.63;24.87;;;14.20;92.60;;;;;;5013712;28;20205;-89
2022/09/08 02:49:10;;;;;;;29.30;24.03;;;14.20;92.60;;;;;;4996311;28;20181;-88
2022/09/08 02:51:36;;;;;;;27.40;23.97;;;14.10;92.70;;;;;;5015535;28;20666;-88
2022/09/08 02:54:01;;;;;;;25.00;22.40;;;14.20;92.60;;;;;;5013769;28;20194;-89
2022/09/08 02:56:27;;;;;;;24.60;22.07;;;14.10;92.50;;;;;;4996099;28;20193;-88
2022/09/08 02:58:54;;;;;;;27.63;22.50;;;14.10;92.60;;;;;;4996088;28;20177;-88
2022/09/08 03:01:20;;;;;;;22.63;20.30;;;14.20;92.60;;;;;;4995978;28;20549;-88
2022/09/08 03:03:46;;;;;;;28.67;21.33;;;14.20;92.60;;;;;;4995894;28;20193;-88
2022/09/08 03:06:12;;;;;;;23.00;20.57;;;14.20;92.50;;;;;;4998390;28;20562;-89
2022/09/08 03:08:37;;;;;;;24.63;21.93;;;14.20;92.50;;;;;;4999917;28;20296;-89
2022/09/08 03:11:03;;;;;;;25.30;21.17;;;14.20;92.50;;;;;;5017373;28;20632;-89
2022/09/08 03:13:29;;;;;;;24.30;21.70;;;14.30;92.60;;;;;;4999994;28;20181;-89
2022/09/08 03:15:54;;;;;;;24.27;21.37;;;14.30;92.50;;;;;;4999530;28;20638;-89
2022/09/08 03:18:21;;;;;;;28.77;22.47;;;14.30;92.60;;;;;;4999797;28;20177;-89
2022/09/08 03:20:46;;;;;;;24.87;22.23;;;14.40;92.60;;;;;;4999489;28;20178;-89
2022/09/08 03:23:19;;;;;;;23.23;20.63;;;14.40;92.60;;;;;;4999527;28;20211;-89
2022/09/08 03:25:47;;;;;;;26.23;20.83;;;14.40;92.50;;;;;;4999659;28;20757;-89
2022/09/08 03:28:18;;;;;;;22.43;20.07;;;14.50;92.50;;;;;;5017214;28;20168;-88
2022/09/08 03:30:44;;;;;;;22.90;19.67;;;14.50;92.50;;;;;;5017084;28;20530;-88
2022/09/08 03:33:09;;;;;;;23.77;19.10;;;14.40;92.40;;;;;;4999503;28;20277;-88
2022/09/08 03:35:36;;;;;;;24.20;19.83;;;14.40;92.20;;;;;;5017035;28;20259;-91
2022/09/08 03:38:01;;;;;;;24.10;20.53;;;14.30;92.10;;;;;;4999398;28;20227;-90
2022/09/08 03:40:27;;;;;;;23.30;19.07;;;14.20;92.00;;;;;;4999574;28;20177;-90
2022/09/08 03:42:53;;;;;;;26.17;19.43;;;14.10;92.00;;;;;;4999356;28;20181;-90
2022/09/08 03:45:18;;;;;;;22.67;20.13;;;14.10;92.10;;;;;;5000334;28;20174;-89
2022/09/08 03:47:44;;;;;;;21.77;19.47;;;14.10;92.10;;;;;;5016821;28;20176;-90
2022/09/08 03:50:12;;;;;;;29.23;19.93;;;14.10;92.20;;;;;;4999102;28;20236;-89
2022/09/08 03:52:38;;;;;;;24.10;20.43;;;14.10;92.30;;;;;;4998982;28;20184;-89
2022/09/08 03:55:05;;;;;;;23.77;19.43;;;14.20;92.40;;;;;;4999113;28;20204;-89
2022/09/08 03:57:31;;;;;;;22.37;20.17;;;14.20;92.40;;;;;;5016713;28;20231;-89
2022/09/08 03:59:58;;;;;;;23.23;18.37;;;14.20;92.40;;;;;;4999192;28;20264;-89
2022/09/08 04:02:25;;;;;;;24.80;18.47;;;14.20;92.40;;;;;;4999180;28;20734;-89
2022/09/08 04:04:54;;;;;;;21.87;19.53;;;14.30;92.30;;;;;;4998983;28;20178;-91
2022/09/08 04:07:20;;;;;;;20.27;18.10;;;14.20;92.20;;;;;;4999017;28;20560;-88
2022/09/08 04:09:46;;;;;;;24.43;17.57;;;14.20;92.20;;;;;;5016439;28;20546;-89
2022/09/08 04:12:14;;;;;;;22.27;16.50;;;14.20;92.10;;;;;;5016384;28;20267;-89
2022/09/08 04:14:40;;;;;;;25.03;16.57;;;14.20;92.10;;;;;;4998680;28;20235;-89
2022/09/08 04:17:06;;;;;;;18.37;16.47;;;14.20;92.00;;;;;;5015864;28;20194;-89
2022/09/08 04:19:33;;;;;;;18.83;16.83;;;14.20;91.90;;;;;;4998688;28;20238;-90
2022/09/08 04:21:58;;;;;;;21.50;17.47;;;14.20;91.90;;;;;;4998642;28;20181;-89
2022/09/08 04:24:25;;;;;;;22.33;15.93;;;14.20;91.80;;;;;;4998404;28;20192;-89
2022/09/08 04:26:51;;;;;;;22.93;14.67;;;14.20;91.80;;;;;;4998285;28;20217;-89
2022/09/08 04:29:16;;;;;;;19.37;15.60;;;14.10;91.70;;;;;;5016165;28;20220;-89
2022/09/08 04:31:43;;;;;;;19.43;15.33;;;14.10;91.70;;;;;;4998368;28;20226;-89
2022/09/08 04:34:10;;;;;;;17.97;15.43;;;14.10;91.70;;;;;;5016091;28;20196;-89
2022/09/08 04:36:36;;;;;;;17.80;15.43;;;14.10;91.70;;;;;;5015713;28;20259;-89
2022/09/08 04:39:02;;;;;;;21.17;14.17;;;14.10;91.70;;;;;;4998322;28;20209;-89
2022/09/08 04:41:30;;;;;;;16.90;14.23;;;14.10;91.60;;;;;;4998149;28;20177;-90
2022/09/08 04:44:00;;;;;;;17.77;14.23;;;14.10;91.60;;;;;;4998073;28;20651;-90
2022/09/08 04:46:26;;;;;;;16.57;13.27;;;14.00;91.60;;;;;;4998039;28;20205;-89
2022/09/08 04:48:53;;;;;;;21.37;13.57;;;14.00;91.50;;;;;;4998401;28;20264;-90
2022/09/08 04:51:19;;;;;;;17.23;14.37;;;14.00;91.50;;;;;;4998207;28;20184;-90
2022/09/08 04:53:45;;;;;;;15.60;13.97;;;14.00;91.50;;;;;;4998060;28;20201;-89
2022/09/08 04:56:12;;;;;;;14.67;13.20;;;14.00;91.40;;;;;;4998020;28;20189;-89
2022/09/08 04:58:41;;;;;;;15.60;13.87;;;13.90;91.40;;;;;;4998080;28;20169;-89
2022/09/08 05:01:10;;;;;;;14.70;13.00;;;13.90;91.40;;;;;;4997928;28;20699;-89
2022/09/08 05:03:36;;;;;;;14.23;12.83;;;13.90;91.40;;;;;;4997844;28;20173;-89
2022/09/08 05:06:09;;;;;;;23.77;13.67;;;13.90;91.50;;;;;;4997701;28;20201;-89
2022/09/08 05:08:34;;;;;;;16.17;14.00;;;13.90;91.50;;;;;;4997797;28;20174;-89
2022/09/08 05:11:01;;;;;;;17.47;12.73;;;13.90;91.40;;;;;;4997651;28;20200;-89
2022/09/08 05:13:27;;;;;;;18.60;13.70;;;13.90;91.40;;;;;;5015073;28;20173;-90
2022/09/08 05:15:52;;;;;;;17.80;12.97;;;13.90;91.40;;;;;;4998257;28;20255;-90
2022/09/08 05:18:18;;;;;;;15.97;12.57;;;13.80;91.40;;;;;;4997383;28;20580;-89
2022/09/08 05:20:52;;;;;;;14.47;12.77;;;13.90;91.40;;;;;;4997614;28;20204;-89
2022/09/08 05:23:17;;;;;;;13.20;11.93;;;13.90;91.40;;;;;;4997462;28;20166;-89
2022/09/08 05:25:43;;;;;;;13.90;11.77;;;14.00;91.40;;;;;;4997362;28;20235;-89
2022/09/08 05:28:08;;;;;;;14.00;12.43;;;14.10;91.50;;;;;;5014760;28;20248;-90
2022/09/08 05:30:34;;;;;;;16.63;11.80;;;14.10;91.50;;;;;;4997348;28;20181;-89
2022/09/08 05:32:59;;;;;;;14.17;12.47;;;14.20;91.40;;;;;;5015035;28;20168;-89
2022/09/08 05:35:25;;;;;;;16.43;13.10;;;14.20;91.30;;;;;;5014458;28;20209;-89
2022/09/08 05:37:50;;;;;;;16.53;12.03;;;14.20;91.20;;;;;;4997034;28;20658;-88
2022/09/08 05:40:16;;;;;;;15.87;11.57;;;14.20;91.30;;;;;;4997128;28;20177;-88
2022/09/08 05:42:42;;;;;;;12.43;10.97;;;14.20;91.20;;;;;;5014479;28;20201;-88
2022/09/08 05:45:08;;;;;;;13.23;11.53;;;14.20;91.20;;;;;;4997090;28;20185;-88
2022/09/08 05:47:34;;;;;;;17.27;11.40;;;14.30;91.00;;;;;;4997152;28;20660;-89
2022/09/08 05:49:59;;;;;;;13.87;11.23;;;14.40;90.90;;;;;;4996972;28;20180;-89
2022/09/08 05:52:28;;;;;;;20.13;11.67;;;14.40;90.70;;;;;;4996869;28;20188;-89
2022/09/08 05:54:55;;;;;;;12.30;10.87;;;14.40;90.50;;;;;;4996817;28;20555;-90
2022/09/08 05:57:20;;;;;;;11.70;10.07;;;14.40;90.40;;;;;;5014363;28;20216;-89
2022/09/08 05:59:46;;;;;;;15.90;10.33;;;14.40;90.30;;;;;;4997740;28;20220;-89
2022/09/08 06:02:12;;;;;;;10.97;9.87;;;14.50;90.20;;;;;;4997272;28;20191;-88
2022/09/08 06:04:37;;;;;;;19.23;10.40;;;14.50;90.10;;;;;;4997404;28;20177;-89
2022/09/08 06:07:03;;;;;;;11.53;9.20;;;14.50;90.00;;;;;;4996616;28;20201;-90
2022/09/08 06:09:28;;;;;;;14.37;10.17;;;14.60;89.90;;;;;;4996784;28;20185;-88
2022/09/08 06:11:54;;;;;;;11.20;9.27;;;14.60;89.80;;;;;;5014898;28;20215;-88
2022/09/08 06:14:20;;;;;;;11.83;9.60;;;14.60;89.60;;;;;;5014382;28;20204;-89
2022/09/08 06:16:45;;;;;;;11.87;8.83;;;14.60;89.50;;;;;;4997075;28;20197;-87
2022/09/08 06:19:11;;;;;;;11.53;10.33;;;14.70;89.50;;;;;;4997099;28;20169;-88
2022/09/08 06:21:37;;;;;;;11.83;9.20;;;14.70;89.40;;;;;;4996710;28;20185;-89
2022/09/08 06:24:04;;;;;;;14.80;9.60;;;14.70;89.20;;;;;;5014458;28;20188;-88
2022/09/08 06:26:53;;;;;;;12.20;8.97;;;14.80;89.10;;;;;;4996258;28;20213;-88
2022/09/08 06:29:24;;;;;;;14.23;8.60;;;14.80;89.00;;;;;;4996896;28;20181;-87
2022/09/08 06:32:00;;;;;;;11.17;8.33;;;14.80;88.90;;;;;;4997292;28;20169;-87
2022/09/08 06:34:29;;;;;;;11.80;8.13;;;14.80;88.70;;;;;;4996709;28;20208;-89
2022/09/08 06:37:01;;;;;;;9.17;8.00;;;14.90;88.50;;;;;;5014274;28;20197;-88
2022/09/08 06:39:36;;;;;;;16.60;8.07;;;14.90;88.50;;;;;;4997189;28;20282;-89
2022/09/08 06:42:16;;;;;;;10.77;7.73;;;14.90;88.30;;;;;;5014959;28;20164;-88
2022/09/08 06:44:44;;;;;;;10.67;8.00;;;15.00;88.00;;;;;;4996933;28;20657;-87
2022/09/08 06:47:23;;;;;;;9.57;7.53;;;15.00;88.00;;;;;;5014424;28;20231;-88
2022/09/08 06:49:51;;;;;;;8.20;7.40;;;15.00;87.70;;;;;;4997433;28;20177;-88
2022/09/08 06:52:45;;;;;;;10.17;7.23;;;15.00;87.50;;;;;;4997070;28;20678;-88
2022/09/08 06:55:22;;;;;;;8.67;7.13;;;15.10;87.10;;;;;;5015051;28;20213;-87
2022/09/08 06:58:03;;;;;;;10.53;6.57;;;15.20;87.00;;;;;;4997327;28;20259;-87
2022/09/08 07:00:38;;;;;;;10.20;7.07;;;15.20;86.80;;;;;;4997903;28;20173;-87
2022/09/08 07:03:37;;;;;;;14.33;7.57;;;15.20;86.60;;;;;;5015916;28;20157;-87
2022/09/08 07:06:05;;;;;;;12.77;7.17;;;15.30;86.30;;;;;;4987601;28;20205;-88
2022/09/08 07:08:34;;;;;;;10.13;7.00;;;15.30;85.60;;;;;;4997994;28;20182;-87
2022/09/08 07:11:18;;;;;;;7.70;6.57;;;15.30;85.50;;;;;;4997639;28;20267;-89
2022/09/08 07:13:52;;;;;;;11.50;6.10;;;15.40;85.60;;;;;;4998914;28;20201;-88
2022/09/08 07:16:35;;;;;;;9.03;6.17;;;15.40;85.10;;;;;;4998040;28;20205;-88
2022/09/08 07:19:27;;;;;;;8.30;5.63;;;15.40;85.10;;;;;;5015225;28;20162;-86
2022/09/08 07:22:28;;;;;;;13.27;7.03;;;15.40;84.90;;;;;;4997735;28;20256;-86
2022/09/08 07:25:06;;;;;;;10.60;5.80;;;15.40;84.80;;;;;;4998684;28;20671;-87
2022/09/08 07:27:32;;;;;;;7.27;5.67;;;15.50;84.50;;;;;;4997585;28;20285;-88
2022/09/08 07:30:00;;;;;;;8.13;5.37;;;15.50;84.50;;;;;;4997916;28;20275;-86
2022/09/08 07:32:31;;;;;;;6.72;5.28;;;15.50;84.50;;;;;;4997712;28;20190;-88
2022/09/08 07:35:21;;;;;;;8.73;5.23;;;15.60;84.10;;;;;;4997480;28;20197;-86
2022/09/08 07:37:49;;;;;;;7.33;5.20;;;15.60;84.10;;;;;;5015417;28;20168;-87
2022/09/08 07:40:19;;;;;;;11.00;6.80;;;15.60;84.10;;;;;;5015660;28;20205;-87
2022/09/08 07:42:54;;;;;;;10.25;5.97;;;15.60;84.00;;;;;;4998435;28;20176;-86
2022/09/08 07:45:35;;;;;;;8.30;5.67;;;15.60;84.10;;;;;;4997926;28;20223;-88
2022/09/08 07:48:10;;;;;;;7.57;6.33;;;15.60;84.20;;;;;;5015798;28;20185;-88
2022/09/08 07:50:56;;;;;;;7.67;5.07;;;15.60;84.00;;;;;;4998273;28;20543;-87
2022/09/08 07:53:49;;;;;;;9.32;6.47;;;15.60;83.90;;;;;;5018912;28;20161;-88
2022/09/08 07:56:31;;;;;;;6.50;5.17;;;15.60;83.80;;;;;;5001484;28;20208;-88
2022/09/08 07:59:21;;;;;;;7.47;5.50;;;15.70;84.10;;;;;;5001534;28;20169;-88
2022/09/08 08:01:58;;;;;;;7.90;5.40;;;15.70;84.00;;;;;;5001857;28;20162;-88
2022/09/08 08:04:50;;;;;;;8.23;5.73;;;15.80;83.90;;;;;;5019759;28;20171;-87
2022/09/08 08:07:22;;;;;;;9.38;5.38;;;15.80;83.50;;;;;;5001260;28;20217;-88
2022/09/08 08:09:51;;;;;;;5.78;5.18;;;15.80;83.40;;;;;;5019285;28;20241;-88
2022/09/08 08:12:35;;;;;;;8.48;4.95;;;15.80;83.50;;;;;;5001346;28;20183;-88
2022/09/08 08:15:22;;;;;;;6.57;5.38;;;15.90;83.40;;;;;;5001532;28;20264;-86
2022/09/08 08:18:33;;;;;;;9.07;5.73;;;15.90;82.80;;;;;;5001780;28;20252;-88
2022/09/08 08:21:03;;;;;;;5.80;5.05;;;15.90;83.10;;;;;;5010115;28;20239;-88
2022/09/08 08:23:54;;;;;;;5.97;4.67;;;16.00;82.90;;;;;;5018649;28;20568;-87
2022/09/08 08:26:32;;;;;;;8.50;5.33;;;15.90;82.60;;;;;;5000503;28;20580;-87
2022/09/08 08:29:38;;;;;;;10.30;5.30;;;15.90;82.80;;;;;;5001353;28;20165;-88
2022/09/08 08:32:17;;;;;;;7.43;5.13;;;15.90;82.30;;;;;;4979308;28;20190;-88
2022/09/08 08:34:52;;;;;;;11.05;5.18;;;16.00;82.20;;;;;;5000925;28;20235;-87
2022/09/08 08:37:23;;;;;;;5.43;4.93;;;16.00;82.60;;;;;;5000892;28;20275;-86
2022/09/08 08:39:52;;;;;;;7.72;4.90;;;16.00;82.40;;;;;;5001182;28;20164;-87
2022/09/08 08:42:36;;;;;;;5.82;4.68;;;16.00;82.20;;;;;;5000900;28;20184;-87
2022/09/08 08:45:27;;;;;;;7.88;4.82;;;16.00;82.00;;;;;;5001309;28;20616;-88
2022/09/08 08:48:11;;;;;;;7.90;4.87;;;16.00;81.70;;;;;;5000525;28;20624;-87
2022/09/08 08:50:56;;;;;;;5.88;4.53;;;16.10;81.90;;;;;;5018643;28;20176;-87
2022/09/08 08:53:31;;;;;;;5.90;4.82;;;16.00;81.80;;;;;;5001547;28;20256;-87
2022/09/08 08:56:15;;;;;;;5.82;4.70;;;16.10;81.80;;;;;;5000343;28;20200;-86
2022/09/08 08:59:09;;;;;;;11.73;4.82;;;16.10;81.50;;;;;;4997885;28;20726;-87
2022/09/08 09:01:59;;;;;;;8.00;4.75;;;16.10;81.40;;;;;;4997626;28;20177;-85
2022/09/08 09:04:53;;;;;;;12.45;5.80;;;16.20;81.40;;;;;;5014420;28;20173;-85
2022/09/08 09:07:19;;;;;;;8.98;4.50;;;16.30;81.20;;;;;;4997651;28;20747;-85
2022/09/08 09:10:10;;;;;;;7.05;4.38;;;16.30;80.40;;;;;;5014990;28;20212;-85
2022/09/08 09:12:36;;;;;;;12.63;4.50;;;16.30;80.50;;;;;;5015298;28;20624;-86
2022/09/08 09:15:13;;;;;;;7.53;4.88;;;16.40;80.30;;;;;;4997277;28;20295;-85
2022/09/08 09:18:14;;;;;;;7.82;5.07;;;16.50;80.20;;;;;;5015135;28;20590;-86
2022/09/08 09:21:07;;;;;;;9.63;4.75;;;16.50;79.80;;;;;;5015175;28;20160;-87
2022/09/08 09:23:44;;;;;;;12.30;4.43;;;16.50;79.50;;;;;;5004906;28;20181;-84
2022/09/08 09:26:18;;;;;;;6.05;4.60;;;16.50;78.70;;;;;;4996873;28;20205;-86
2022/09/08 09:29:08;;;;;;;9.82;4.40;;;16.50;79.10;;;;;;4997280;28;20268;-86
2022/09/08 09:32:04;;;;;;;6.28;3.80;;;16.50;78.10;;;;;;4997955;28;20169;-85
2022/09/08 09:34:49;;;;;;;7.60;4.50;;;16.60;78.20;;;;;;4999726;28;20197;-84
2022/09/08 09:37:27;;;;;;;12.93;3.75;;;16.50;77.10;;;;;;5015674;28;20687;-84
2022/09/08 09:40:13;;;;;;;8.93;4.05;;;16.60;77.50;;;;;;4997039;28;20522;-85
2022/09/08 09:42:54;;;;;;;7.53;3.70;;;16.60;77.60;;;;;;5014716;28;20189;-85
2022/09/08 09:45:43;;;;;;;5.90;3.63;;;16.60;77.40;;;;;;4996833;28;20172;-85
2022/09/08 09:48:19;;;;;;;14.15;3.88;;;16.60;77.10;;;;;;4996879;28;20212;-85
2022/09/08 09:51:12;;;;;;;5.07;3.42;;;16.70;77.50;;;;;;5014658;28;20153;-86
2022/09/08 09:54:07;;;;;;;8.88;3.58;;;16.70;77.10;;;;;;5014541;28;20690;-86
2022/09/08 09:56:51;;;;;;;6.35;4.30;;;16.60;76.00;;;;;;5014791;28;20192;-86
2022/09/08 09:59:33;;;;;;;7.75;3.80;;;16.70;75.70;;;;;;4997013;28;20664;-86
2022/09/08 10:02:28;;;;;;;11.02;3.78;;;16.70;75.80;;;;;;4997097;28;20158;-85
2022/09/08 10:05:27;;;;;;;5.18;3.75;;;16.60;74.80;;;;;;4998023;28;20244;-88
2022/09/08 10:08:16;;;;;;;5.97;3.90;;;16.70;75.50;;;;;;5014844;28;20252;-87
2022/09/08 10:11:19;;;;;;;5.35;3.45;;;16.80;75.40;;;;;;4996836;28;20260;-87
2022/09/08 10:13:59;;;;;;;7.43;3.60;;;16.90;75.20;;;;;;5014136;28;20158;-86
2022/09/08 10:16:55;;;;;;;9.25;3.75;;;16.80;74.40;;;;;;4996674;28;20193;-87
2022/09/08 10:19:49;;;;;;;7.65;3.90;;;16.80;74.30;;;;;;4990634;28;20222;-89
2022/09/08 10:22:38;;;;;;;5.88;3.10;;;16.90;74.30;;;;;;4996925;28;20165;-88
2022/09/08 10:25:25;;;;;;;6.53;3.40;;;16.90;74.10;;;;;;4959177;28;20277;-88
2022/09/08 10:28:28;;;;;;;6.70;3.83;;;16.90;73.00;;;;;;5014454;28;20505;-86
2022/09/08 10:31:09;;;;;;;6.30;3.60;;;16.90;73.40;;;;;;5014258;28;20169;-88
2022/09/08 10:34:21;;;;;;;5.90;3.80;;;17.00;73.50;;;;;;4996474;28;20169;-85
2022/09/08 10:37:03;;;;;;;7.93;3.78;;;17.00;72.70;;;;;;4996491;28;20197;-87
2022/09/08 10:39:57;;;;;;;9.35;4.50;;;17.10;73.00;;;;;;4996337;28;20173;-86
2022/09/08 10:42:28;;;;;;;9.98;3.97;;;17.10;72.40;;;;;;4996143;28;20211;-87
2022/09/08 10:45:10;;;;;;;8.40;4.10;;;17.00;72.10;;;;;;4996424;28;20170;-88
2022/09/08 10:48:03;;;;;;;6.35;4.55;;;17.20;72.90;;;;;;5013832;28;20158;-87
2022/09/08 10:50:30;;;;;;;10.57;4.50;;;17.00;74.60;;;;;;4996381;28;20220;-88
2022/09/08 10:53:42;;;;;;;5.25;3.83;;;16.90;76.00;;;;;;4996375;28;20185;-86
2022/09/08 10:56:27;;;;;;;6.70;4.45;;;16.80;76.50;;;;;;5013746;28;20268;-86
2022/09/08 10:59:29;;;;;;;9.73;4.25;;;16.70;75.80;;;;;;5014121;28;20157;-87
2022/09/08 11:02:13;;;;;;;6.95;4.32;;;16.70;75.80;;;;;;4995935;28;20223;-86
2022/09/08 11:05:08;;;;;;;12.20;4.60;;;16.70;76.00;;;;;;5013691;28;20624;-85
2022/09/08 11:08:06;;;;;;;6.10;4.10;;;16.70;76.20;;;;;;4996124;28;20162;-86
2022/09/08 11:10:56;;;;;;;6.85;4.05;;;16.70;76.10;;;;;;5013816;28;20162;-86
2022/09/08 11:13:37;;;;;;;9.20;4.50;;;16.70;76.00;;;;;;4995999;28;20212;-86
2022/09/08 11:16:39;;;;;;;11.30;4.30;;;16.60;76.70;;;;;;4995934;28;20620;-86
2022/09/08 11:19:13;;;;;;;15.82;4.32;;;16.60;77.20;;;;;;4995629;28;20165;-87
2022/09/08 11:21:55;;;;;;;6.40;4.57;;;16.60;77.20;;;;;;4996541;28;20172;-88
2022/09/08 11:24:41;;;;;;;11.82;4.35;;;16.60;78.70;;;;;;4999031;28;20646;-88
2022/09/08 11:27:23;;;;;;;6.75;4.20;;;16.60;79.50;;;;;;4999964;28;20248;-89
2022/09/08 11:30:19;;;;;;;11.18;4.85;;;16.60;80.50;;;;;;5002404;28;20244;-87
2022/09/08 11:33:03;;;;;;;16.45;7.70;;;16.50;81.40;;;;;;4934234;28;20215;-88
2022/09/08 11:35:39;;;;;;;18.75;6.97;;;16.40;81.50;;;;;;4999901;28;20220;-88
2022/09/08 11:38:29;;;;;;;11.77;5.70;;;16.20;82.70;;;;;;5001863;28;20196;-88
2022/09/08 11:41:18;;;;;;;9.65;6.10;;;16.00;83.50;;;;;;5004742;28;20197;-89
2022/09/08 11:43:48;;;;;;;16.40;6.35;;;15.70;85.00;;;;;;5004973;28;20169;-89
2022/09/08 11:46:40;;;;;;;18.33;6.97;;;15.50;86.10;;;;;;5006538;28;20193;-90
2022/09/08 11:49:14;;;;;;;11.65;7.32;;;15.40;86.70;;;;;;5007046;28;20192;-89
2022/09/08 11:51:46;;;;;;;17.05;7.20;;;15.30;87.20;;;;;;5006534;28;20241;-91
2022/09/08 11:54:21;;;;;;;11.20;7.43;;;15.40;87.70;;;;;;5009299;28;20197;-89
2022/09/08 11:56:58;;;;;;;14.10;8.00;;;15.40;87.80;;;;;;5003529;28;20192;-88
2022/09/08 11:59:50;;;;;;;13.18;7.57;;;15.40;88.00;;;;;;5020523;28;20686;-88
2022/09/08 12:02:52;;;;;;;15.10;7.93;;;15.40;88.10;;;;;;5002470;28;20667;-89
2022/09/08 12:05:49;;;;;;;11.98;7.38;;;15.50;88.20;;;;;;5019357;28;20200;-89
2022/09/08 12:08:37;;;;;;;13.15;6.78;;;15.60;88.10;;;;;;4962783;28;20192;-88
2022/09/08 12:11:09;;;;;;;10.82;7.40;;;15.60;87.90;;;;;;5000280;28;20216;-89
2022/09/08 12:13:55;;;;;;;9.32;7.20;;;15.70;88.00;;;;;;5001409;28;20184;-87
2022/09/08 12:16:46;;;;;;;13.50;7.07;;;15.70;88.00;;;;;;5000939;28;20221;-87
2022/09/08 12:19:35;;;;;;;13.52;7.78;;;15.80;88.30;;;;;;5002444;28;20753;-89
2022/09/08 12:22:39;;;;;;;10.50;7.28;;;15.90;88.70;;;;;;4999522;28;20248;-87
2022/09/08 12:25:28;;;;;;;13.30;8.57;;;15.90;88.60;;;;;;4959113;28;20185;-87
2022/09/08 12:28:27;;;;;;;11.55;7.78;;;15.80;88.60;;;;;;4999055;28;20225;-86
2022/09/08 12:31:31;;;;;;;11.50;7.95;;;15.70;88.80;;;;;;4999050;28;20609;-89
2022/09/08 12:34:18;;;;;;;11.38;7.10;;;15.60;89.20;;;;;;5016099;28;20181;-88
2022/09/08 12:36:52;;;;;;;13.57;7.03;;;15.50;89.40;;;;;;4998024;28;20200;-87
2022/09/08 12:39:37;;;;;;;11.20;6.88;;;15.30;89.60;;;;;;5015984;28;20243;-88
2022/09/08 12:42:14;;;;;;;11.88;7.20;;;15.30;89.60;;;;;;4998960;28;20188;-87
2022/09/08 12:45:01;;;;;;;10.43;7.40;;;15.30;89.80;;;;;;5018032;28;20169;-88
2022/09/08 12:47:44;;;;;;;11.88;7.18;;;15.30;89.80;;;;;;5000562;28;20676;-89
2022/09/08 12:50:37;;;;;;;10.00;7.60;;;15.20;90.10;;;;;;4999867;28;20180;-88
2022/09/08 12:53:28;;;;;;;11.40;7.60;;;15.20;90.20;;;;;;5017066;28;20172;-88
2022/09/08 12:56:20;;;;;;;11.43;8.70;;;15.10;90.30;;;;;;4998661;28;20229;-88
2022/09/08 12:59:28;;;;;;;13.17;8.93;;;15.10;90.80;;;;;;5000608;28;20644;-86
2022/09/08 13:02:35;;;;;;;13.23;8.60;;;15.10;91.10;;;;;;5016706;28;20212;-88
2022/09/08 13:05:32;;;;;;;12.63;8.90;;;15.00;91.20;;;;;;4999906;28;20169;-88
2022/09/08 13:08:31;;;;;;;14.43;9.43;;;15.00;91.30;;;;;;4999269;28;20188;-88
2022/09/08 13:11:29;;;;;;;12.07;9.27;;;15.00;91.40;;;;;;5018648;28;20212;-87
2022/09/08 13:14:04;;;;;;;15.00;9.37;;;14.90;91.50;;;;;;5012003;28;20698;-88
2022/09/08 13:16:50;;;;;;;13.13;9.47;;;14.90;91.60;;;;;;4999583;28;20335;-87
2022/09/08 13:19:15;;;;;;;16.20;9.60;;;14.90;91.70;;;;;;5015848;28;20168;-87
2022/09/08 13:21:56;;;;;;;16.53;9.70;;;14.90;91.70;;;;;;5015660;28;20636;-88
2022/09/08 13:24:41;;;;;;;13.37;10.70;;;14.90;91.80;;;;;;5016261;28;20524;-87